sim
Sign-in with your pilot id or email,
or register
Callsign
Passwort

Schedule Details

Flight Number: OEO4162
Departure: Hannover Langenhagen Airport (EDDV) at 05:25
Arrival: Thessaloniki International Airport (LGTS) at 08:05

Weather Information
Getting current METAR information for EDDV 230620Z VRB01KT CAVOK 17/11 Q1026 NOSIG
Getting current METAR information for LGTS 230620Z VRB02KT CAVOK 28/18 Q1019 NOSIG

Schedule Frequency

Route Map